createdAt,value
2022-11-17T04:57:21.659Z,8.10
2022-11-17T04:59:48.445Z,8.15
2022-11-17T05:02:15.298Z,8.16
2022-11-17T05:04:57.170Z,8.20
2022-11-17T05:07:24.485Z,8.22
2022-11-17T05:09:51.352Z,8.24
2022-11-17T05:12:36.570Z,8.30
2022-11-17T05:15:03.481Z,8.34
2022-11-17T05:17:30.303Z,8.32
2022-11-17T05:19:57.487Z,8.37
2022-11-17T05:22:43.084Z,8.38
2022-11-17T05:25:10.234Z,8.41
2022-11-17T05:27:38.120Z,8.40
2022-11-17T07:57:16.561Z,10.10
2022-11-17T07:59:43.419Z,10.21
2022-11-17T08:02:10.421Z,10.39
2022-11-17T08:04:37.311Z,10.52
2022-11-17T08:07:04.219Z,10.63
2022-11-17T08:09:31.164Z,10.74
2022-11-17T08:11:59.497Z,10.85
2022-11-17T08:14:26.497Z,11.01
2022-11-17T08:16:53.397Z,11.13
2022-11-17T08:19:21.151Z,11.22
2022-11-17T08:21:48.142Z,11.31
2022-11-17T08:24:15.083Z,11.38
2022-11-17T08:26:41.893Z,11.44
2022-11-17T08:29:08.841Z,11.59
2022-11-17T08:31:35.669Z,11.74
2022-11-17T08:34:02.495Z,11.96
2022-11-17T08:36:29.377Z,12.23
2022-11-17T08:38:56.210Z,12.34
2022-11-17T08:41:23.430Z,12.56
2022-11-17T08:43:51.613Z,12.79
2022-11-17T08:46:18.563Z,13.03
2022-11-17T08:48:45.438Z,13.26
2022-11-17T08:51:14.179Z,13.49
2022-11-17T08:53:41.361Z,13.38
2022-11-17T08:56:13.061Z,13.13
2022-11-17T08:58:44.579Z,12.98
2022-11-17T09:01:15.953Z,13.11
2022-11-17T09:03:45.064Z,13.16
2022-11-17T09:06:12.972Z,13.14
2022-11-17T09:08:47.656Z,13.14
2022-11-17T09:11:14.809Z,13.15
2022-11-17T09:13:42.406Z,13.21
2022-11-17T09:16:11.130Z,13.25
2022-11-17T09:18:39.953Z,13.19
2022-11-17T09:21:08.530Z,13.20
2022-11-17T09:23:35.715Z,13.17
2022-11-17T09:26:08.735Z,13.14
2022-11-17T09:28:36.152Z,13.09
2022-11-17T09:31:21.817Z,13.07
2022-11-17T09:33:48.919Z,13.11
2022-11-17T09:36:17.043Z,13.10
2022-11-17T09:38:44.993Z,13.12
2022-11-17T09:41:27.069Z,13.09
2022-11-17T09:44:17.133Z,13.13
2022-11-17T09:47:06.272Z,13.17
2022-11-17T09:49:35.995Z,13.21
2022-11-17T09:52:14.168Z,13.25
2022-11-17T09:55:00.703Z,13.30
2022-11-17T09:57:38.127Z,13.33
2022-11-17T10:00:15.695Z,13.34
2022-11-17T10:02:43.399Z,13.33
2022-11-17T10:05:26.621Z,13.36
2022-11-17T10:07:57.348Z,13.36
2022-11-17T10:10:44.364Z,13.40
2022-11-17T10:13:16.671Z,13.48
2022-11-17T10:15:50.045Z,13.56
2022-11-17T10:18:17.990Z,13.58
2022-11-17T10:20:45.619Z,13.65
2022-11-17T10:23:19.355Z,13.73
2022-11-17T10:25:48.545Z,13.74
2022-11-17T10:28:27.246Z,13.77
2022-11-17T10:31:03.756Z,13.75
2022-11-17T10:33:41.283Z,13.75
2022-11-17T10:36:29.137Z,13.81
2022-11-17T10:38:58.393Z,13.80
2022-11-17T10:41:41.531Z,13.73
2022-11-17T10:44:23.796Z,13.91
2022-11-17T10:47:02.254Z,14.43
2022-11-17T10:49:33.818Z,14.51
2022-11-17T10:52:09.368Z,14.50
2022-11-17T10:54:36.269Z,14.23
2022-11-17T10:57:08.511Z,14.26
2022-11-17T11:00:00.152Z,14.24
2022-11-17T11:02:31.478Z,14.28
2022-11-17T11:05:11.110Z,14.12
2022-11-17T11:07:38.969Z,13.92
2022-11-17T11:10:31.008Z,13.67
2022-11-17T11:13:30.208Z,13.99
2022-11-17T11:15:57.285Z,14.36
2022-11-17T11:18:24.790Z,14.55
2022-11-17T11:21:14.295Z,14.67
2022-11-17T11:23:56.743Z,14.59
2022-11-17T11:26:44.994Z,14.79
2022-11-17T11:29:33.343Z,14.57
2022-11-17T11:32:24.913Z,14.70
2022-11-17T11:35:18.834Z,14.59
2022-11-17T11:38:00.684Z,15.04
2022-11-17T11:40:31.453Z,15.31
2022-11-17T11:43:02.837Z,15.32
2022-11-17T11:45:44.577Z,15.28
2022-11-17T11:48:21.033Z,15.19
2022-11-17T11:51:02.067Z,14.96
2022-11-17T11:53:35.102Z,14.71
2022-11-17T11:56:12.558Z,14.65
2022-11-17T11:59:03.171Z,14.61
2022-11-17T12:01:42.354Z,14.74
2022-11-17T12:04:37.159Z,14.58
2022-11-17T12:07:04.034Z,14.25
2022-11-17T12:09:45.524Z,14.12
2022-11-17T12:12:19.261Z,14.08
2022-11-17T12:15:14.501Z,14.37
2022-11-17T12:17:53.271Z,14.35
2022-11-17T12:20:38.786Z,14.25
2022-11-17T12:23:08.474Z,14.20
2022-11-17T12:25:49.047Z,14.20
2022-11-17T12:28:39.512Z,14.36
2022-11-17T12:31:11.996Z,14.33
2022-11-17T12:33:54.157Z,14.87
2022-11-17T12:36:29.818Z,15.41
2022-11-17T12:38:58.974Z,16.02
2022-11-17T12:41:47.441Z,16.34
2022-11-17T12:44:32.399Z,16.66
2022-11-17T12:47:16.583Z,17.05
2022-11-17T12:49:49.375Z,17.18
2022-11-17T12:52:27.704Z,16.53
2022-11-17T12:55:05.327Z,16.53
2022-11-17T12:57:34.393Z,16.43
2022-11-17T13:00:07.683Z,16.68
2022-11-17T13:02:53.397Z,16.93
2022-11-17T13:05:26.199Z,17.37
2022-11-17T13:08:31.487Z,17.88
2022-11-17T13:11:15.406Z,18.18
2022-11-17T13:13:45.771Z,17.63
2022-11-17T13:16:21.634Z,16.91
2022-11-17T13:18:49.423Z,16.56
2022-11-17T13:21:25.288Z,16.47
2022-11-17T13:23:53.739Z,16.47
2022-11-17T13:26:38.146Z,16.77
2022-11-17T13:29:19.923Z,17.06
2022-11-17T13:31:47.178Z,17.37
2022-11-17T13:34:17.558Z,17.29
2022-11-17T13:36:59.678Z,16.78
2022-11-17T13:39:27.985Z,16.34
2022-11-17T13:41:56.481Z,15.83
2022-11-17T13:44:26.218Z,15.69
2022-11-17T13:46:53.180Z,15.19
2022-11-17T13:49:39.556Z,15.11
2022-11-17T13:52:15.258Z,15.03
2022-11-17T13:54:44.705Z,14.87
2022-11-17T13:57:27.272Z,14.76
2022-11-17T13:59:55.143Z,14.70
2022-11-17T14:02:21.954Z,14.68
2022-11-17T14:05:23.556Z,14.57
2022-11-17T14:07:51.277Z,14.55
2022-11-17T14:10:20.893Z,14.54
2022-11-17T14:12:48.642Z,14.53
2022-11-17T14:15:21.634Z,14.52
2022-11-17T14:17:54.772Z,14.45
2022-11-17T14:20:24.303Z,14.44
2022-11-17T14:23:18.297Z,14.37
2022-11-17T14:25:48.337Z,14.37
2022-11-17T14:28:17.343Z,14.38
2022-11-17T14:30:44.410Z,14.33
2022-11-17T14:33:13.732Z,14.32
2022-11-17T14:35:41.147Z,14.25
2022-11-17T14:38:21.685Z,14.25
2022-11-17T14:40:51.779Z,14.23
2022-11-17T14:43:19.747Z,14.21
2022-11-17T14:45:47.454Z,14.16
2022-11-17T14:48:18.807Z,14.08
2022-11-17T14:50:47.209Z,14.00
2022-11-17T14:53:14.213Z,14.00
2022-11-17T14:55:42.174Z,13.96
2022-11-17T14:58:10.156Z,13.93
2022-11-17T15:00:37.747Z,13.86
2022-11-17T15:03:05.035Z,13.84
2022-11-17T15:05:32.194Z,13.80
2022-11-17T15:07:59.200Z,13.78
2022-11-17T15:10:26.058Z,13.73
2022-11-17T15:12:52.953Z,13.64
2022-11-17T15:15:19.822Z,13.63
2022-11-17T15:17:46.772Z,13.58
2022-11-17T15:20:13.897Z,13.57
2022-11-17T15:22:40.760Z,13.51
2022-11-17T15:25:08.476Z,13.49
2022-11-17T15:27:35.346Z,13.49
2022-11-17T15:30:02.325Z,13.42
2022-11-17T15:32:29.304Z,13.21
2022-11-17T15:34:56.168Z,13.10
2022-11-17T15:37:23.153Z,13.04
2022-11-17T15:39:50.062Z,12.95
2022-11-17T15:42:16.943Z,12.90
2022-11-17T15:44:44.868Z,12.81
2022-11-17T15:47:11.732Z,12.75
2022-11-17T15:49:38.683Z,12.65
2022-11-17T15:52:05.537Z,12.56
2022-11-17T15:54:33.075Z,12.53
2022-11-17T15:57:01.604Z,12.44
2022-11-17T15:59:28.590Z,12.33
2022-11-17T16:01:55.438Z,12.27
2022-11-17T16:04:22.226Z,12.21
2022-11-17T16:06:49.267Z,12.20
2022-11-17T16:09:17.320Z,12.12
2022-11-17T16:11:47.852Z,12.10
2022-11-17T16:14:15.251Z,12.07
2022-11-17T16:16:44.047Z,12.05
2022-11-17T16:19:10.886Z,11.89
2022-11-17T16:21:37.779Z,12.01
2022-11-17T16:24:05.519Z,11.92
2022-11-17T16:26:32.517Z,11.83
2022-11-17T16:29:01.413Z,11.96
2022-11-17T16:31:30.903Z,11.97
2022-11-17T16:34:06.496Z,11.93
2022-11-17T16:36:36.814Z,11.87
2022-11-17T16:39:06.705Z,11.84
2022-11-17T16:41:36.501Z,11.73
2022-11-17T16:44:08.029Z,11.72
2022-11-17T16:46:35.037Z,11.69
2022-11-17T16:49:07.551Z,11.61
2022-11-17T16:51:34.709Z,11.60
2022-11-17T16:54:06.946Z,11.61
2022-11-17T16:56:34.691Z,11.51
2022-11-17T16:59:01.532Z,11.55
2022-11-17T17:01:30.825Z,11.51
2022-11-17T17:03:58.464Z,11.49
2022-11-17T17:06:25.996Z,11.43
2022-11-17T17:08:57.827Z,11.36
2022-11-17T17:11:25.828Z,11.32
2022-11-17T17:13:53.190Z,11.29
2022-11-17T17:16:21.519Z,11.27
2022-11-17T17:18:48.958Z,11.23
2022-11-17T17:21:18.940Z,11.19
2022-11-17T17:23:45.900Z,11.18
2022-11-17T17:26:16.944Z,11.18
2022-11-17T17:28:45.649Z,11.16
2022-11-17T17:31:20.778Z,11.11
2022-11-17T17:33:48.415Z,11.09
2022-11-17T17:36:17.936Z,11.08
2022-11-17T17:38:46.819Z,11.01
2022-11-17T17:41:19.746Z,11.02
2022-11-17T17:43:47.658Z,10.98
2022-11-17T17:46:16.824Z,10.96
2022-11-17T17:48:45.758Z,10.96
2022-11-17T17:51:19.472Z,10.93
2022-11-17T17:53:50.317Z,11.06
2022-11-17T17:56:19.264Z,11.05
2022-11-17T17:58:48.929Z,11.02
2022-11-17T18:01:25.140Z,10.99
2022-11-17T18:03:54.109Z,10.93
2022-11-17T18:06:22.749Z,10.85
2022-11-17T18:08:50.211Z,10.84
2022-11-17T18:11:20.163Z,10.75
2022-11-17T18:13:52.258Z,10.75
2022-11-17T18:16:23.023Z,10.74
2022-11-17T18:18:50.719Z,10.70
2022-11-17T18:21:20.039Z,10.69
2022-11-17T18:23:46.853Z,10.68
2022-11-17T18:26:24.340Z,10.66
2022-11-17T18:28:51.084Z,10.62
2022-11-17T18:31:18.543Z,10.61
2022-11-17T18:33:45.529Z,10.55
2022-11-17T18:36:12.448Z,10.52
2022-11-17T18:38:39.309Z,10.50
2022-11-17T18:41:08.241Z,10.43
2022-11-17T18:43:35.776Z,10.39
2022-11-17T18:46:08.072Z,10.36
2022-11-17T18:48:36.937Z,10.36
2022-11-17T18:51:22.004Z,10.34
2022-11-17T18:53:50.242Z,10.32
2022-11-17T18:56:19.852Z,10.27
2022-11-17T18:58:47.067Z,10.19
2022-11-17T19:01:17.293Z,10.14
2022-11-17T19:03:45.905Z,10.06
2022-11-17T19:06:14.565Z,10.10
2022-11-17T19:08:41.606Z,10.10
2022-11-17T19:11:09.708Z,10.02
2022-11-17T19:13:39.256Z,10.04
2022-11-17T19:16:12.394Z,10.03
2022-11-17T19:18:39.992Z,10.00
2022-11-17T19:21:18.847Z,10.00
2022-11-17T19:23:51.823Z,9.93
2022-11-17T19:26:24.910Z,9.96
2022-11-17T19:28:56.276Z,9.89
2022-11-17T19:31:23.436Z,9.85
2022-11-17T19:33:50.403Z,9.82
2022-11-17T19:36:23.189Z,9.81
2022-11-17T19:38:51.941Z,9.79
2022-11-17T19:41:24.571Z,9.76
2022-11-17T19:43:56.331Z,9.75
2022-11-17T19:46:24.980Z,9.73
2022-11-17T19:48:52.340Z,9.72
2022-11-17T19:51:21.931Z,9.71
2022-11-17T19:53:50.747Z,9.66
2022-11-17T19:56:18.576Z,9.61
2022-11-17T19:58:46.136Z,9.63
2022-11-17T20:01:18.488Z,9.64
2022-11-17T20:03:46.484Z,9.63
2022-11-17T20:06:18.547Z,9.63
2022-11-17T20:08:46.571Z,9.61
2022-11-17T20:11:17.182Z,9.58
2022-11-17T20:13:44.831Z,9.71
2022-11-17T20:16:15.229Z,9.73
2022-11-17T20:18:43.576Z,9.64
2022-11-17T20:21:12.746Z,9.70
2022-11-17T20:23:41.337Z,9.63
2022-11-17T20:26:11.191Z,9.61
2022-11-17T20:28:39.576Z,9.60
2022-11-17T20:31:17.670Z,9.57
2022-11-17T20:33:44.531Z,9.56
2022-11-17T20:36:14.938Z,9.53
2022-11-17T20:38:41.846Z,9.51
2022-11-17T20:41:10.319Z,9.53
2022-11-17T20:43:37.421Z,9.50
2022-11-17T20:46:04.703Z,9.43
2022-11-17T20:48:35.441Z,9.42
2022-11-17T20:51:11.509Z,9.33
2022-11-17T20:53:41.957Z,9.35
2022-11-17T20:56:11.122Z,9.29
2022-11-17T20:58:40.765Z,9.28
2022-11-17T21:01:30.390Z,9.20
2022-11-17T21:03:57.420Z,9.05
2022-11-17T21:06:24.474Z,9.07
2022-11-17T21:08:52.457Z,9.04
2022-11-17T21:11:41.228Z,8.98
2022-11-17T21:14:11.844Z,8.94
2022-11-17T21:16:41.636Z,8.91
2022-11-17T21:19:09.260Z,8.88
2022-11-17T21:21:36.292Z,8.85
2022-11-17T21:24:04.182Z,8.78
2022-11-17T21:26:31.950Z,8.75
2022-11-17T21:29:04.831Z,8.71
2022-11-17T21:31:33.371Z,8.64
2022-11-17T21:34:02.430Z,8.64
2022-11-17T21:36:31.076Z,8.54
2022-11-17T21:38:58.548Z,8.51
2022-11-17T21:41:28.097Z,8.47
2022-11-17T21:43:58.040Z,8.39
2022-11-17T21:46:27.409Z,8.38
2022-11-17T21:48:55.191Z,8.32
2022-11-17T21:51:24.744Z,8.26
2022-11-17T21:53:58.916Z,8.22
2022-11-17T21:56:27.494Z,8.17
2022-11-17T21:59:05.370Z,8.16
2022-11-17T22:01:33.441Z,8.06
2022-11-17T22:04:00.906Z,8.10
2022-11-17T22:06:28.412Z,8.09
2022-11-17T22:08:56.541Z,8.05
2022-11-17T22:11:35.989Z,7.99
2022-11-17T22:14:18.230Z,7.96
2022-11-17T22:16:51.563Z,7.93
2022-11-17T22:19:20.821Z,7.92
2022-11-17T22:21:51.198Z,7.89
2022-11-17T22:24:18.316Z,7.84
2022-11-17T22:26:45.631Z,7.79
2022-11-17T22:29:18.937Z,7.79
2022-11-17T22:31:47.207Z,7.77
2022-11-17T22:34:14.364Z,7.70
2022-11-17T22:36:41.797Z,7.74
2022-11-17T22:39:09.529Z,7.70
2022-11-17T22:41:38.267Z,7.67
2022-11-17T22:44:06.761Z,7.63
2022-11-17T22:46:34.015Z,7.64
2022-11-17T22:49:01.659Z,7.60
2022-11-17T22:51:47.123Z,7.56
2022-11-17T22:54:13.995Z,7.54
2022-11-17T22:56:40.899Z,7.50
2022-11-17T22:59:07.734Z,7.46
2022-11-17T23:01:34.824Z,7.43
2022-11-17T23:04:04.149Z,7.42
2022-11-17T23:06:30.834Z,7.39
2022-11-17T23:08:58.368Z,7.31
2022-11-17T23:11:37.579Z,7.34
2022-11-17T23:14:08.093Z,7.32
2022-11-17T23:16:36.920Z,7.33
2022-11-17T23:19:04.287Z,7.33
2022-11-17T23:21:31.463Z,7.23
2022-11-17T23:23:58.425Z,7.15
2022-11-17T23:26:25.305Z,7.13
2022-11-17T23:28:52.969Z,7.10
2022-11-17T23:31:19.833Z,7.03
2022-11-17T23:33:48.493Z,7.04
2022-11-17T23:36:20.602Z,6.99
2022-11-17T23:38:49.164Z,7.01
2022-11-17T23:41:18.651Z,7.00
2022-11-17T23:43:45.840Z,6.93
2022-11-17T23:46:16.615Z,6.96
2022-11-17T23:48:44.839Z,6.96
2022-11-17T23:51:20.592Z,6.93
2022-11-17T23:53:47.706Z,6.92
2022-11-17T23:56:15.552Z,6.90
2022-11-17T23:58:42.934Z,6.93
